sensor_id;sensor_type;location;lat;lon;timestamp;P1;durP1;ratioP1;P2;durP2;ratioP2
10717;SDS011;13513;42.700;23.124;2023-11-21T00:00:43;9.07;;;3.60;;
10717;SDS011;13513;42.700;23.124;2023-11-21T00:03:11;5.27;;;3.63;;
10717;SDS011;13513;42.700;23.124;2023-11-21T00:05:40;5.23;;;3.07;;
10717;SDS011;13513;42.700;23.124;2023-11-21T00:08:08;3.87;;;3.47;;
10717;SDS011;13513;42.700;23.124;2023-11-21T00:10:36;5.20;;;2.97;;
10717;SDS011;13513;42.700;23.124;2023-11-21T00:13:04;4.87;;;3.00;;
10717;SDS011;13513;42.700;23.124;2023-11-21T00:15:31;3.80;;;2.57;;
10717;SDS011;13513;42.700;23.124;2023-11-21T00:17:59;2.93;;;2.47;;
10717;SDS011;13513;42.700;23.124;2023-11-21T00:20:27;4.77;;;2.20;;
10717;SDS011;13513;42.700;23.124;2023-11-21T00:22:54;2.20;;;1.90;;
10717;SDS011;13513;42.700;23.124;2023-11-21T00:25:22;2.37;;;2.10;;
10717;SDS011;13513;42.700;23.124;2023-11-21T00:27:50;3.27;;;1.63;;
10717;SDS011;13513;42.700;23.124;2023-11-21T00:30:17;2.90;;;1.90;;
10717;SDS011;13513;42.700;23.124;2023-11-21T00:32:46;4.23;;;2.10;;
10717;SDS011;13513;42.700;23.124;2023-11-21T00:35:14;3.93;;;2.00;;
10717;SDS011;13513;42.700;23.124;2023-11-21T00:37:41;4.93;;;2.03;;
10717;SDS011;13513;42.700;23.124;2023-11-21T00:40:09;5.70;;;2.20;;
10717;SDS011;13513;42.700;23.124;2023-11-21T00:42:37;5.20;;;2.60;;
10717;SDS011;13513;42.700;23.124;2023-11-21T00:45:05;3.97;;;1.93;;
10717;SDS011;13513;42.700;23.124;2023-11-21T00:47:34;4.00;;;2.33;;
10717;SDS011;13513;42.700;23.124;2023-11-21T00:50:01;2.43;;;1.93;;
10717;SDS011;13513;42.700;23.124;2023-11-21T00:52:30;4.77;;;2.27;;
10717;SDS011;13513;42.700;23.124;2023-11-21T00:54:58;2.70;;;1.90;;
10717;SDS011;13513;42.700;23.124;2023-11-21T00:57:26;4.87;;;2.07;;
10717;SDS011;13513;42.700;23.124;2023-11-21T00:59:53;2.50;;;1.47;;
10717;SDS011;13513;42.700;23.124;2023-11-21T01:02:21;1.57;;;1.30;;
10717;SDS011;13513;42.700;23.124;2023-11-21T01:04:48;1.07;;;1.00;;
10717;SDS011;13513;42.700;23.124;2023-11-21T01:07:16;1.30;;;1.03;;
10717;SDS011;13513;42.700;23.124;2023-11-21T01:09:45;2.23;;;1.10;;
10717;SDS011;13513;42.700;23.124;2023-11-21T01:12:14;1.57;;;1.30;;
10717;SDS011;13513;42.700;23.124;2023-11-21T01:14:43;1.27;;;1.17;;
10717;SDS011;13513;42.700;23.124;2023-11-21T01:17:11;2.80;;;1.23;;
10717;SDS011;13513;42.700;23.124;2023-11-21T01:19:38;2.13;;;1.50;;
10717;SDS011;13513;42.700;23.124;2023-11-21T01:22:05;2.50;;;1.47;;
10717;SDS011;13513;42.700;23.124;2023-11-21T01:24:34;2.63;;;1.80;;
10717;SDS011;13513;42.700;23.124;2023-11-21T01:27:01;4.03;;;1.80;;
10717;SDS011;13513;42.700;23.124;2023-11-21T01:29:29;2.47;;;1.70;;
10717;SDS011;13513;42.700;23.124;2023-11-21T01:31:57;3.47;;;2.50;;
10717;SDS011;13513;42.700;23.124;2023-11-21T01:34:24;3.13;;;1.80;;
10717;SDS011;13513;42.700;23.124;2023-11-21T01:36:52;5.27;;;2.20;;
10717;SDS011;13513;42.700;23.124;2023-11-21T01:39:20;7.10;;;2.53;;
10717;SDS011;13513;42.700;23.124;2023-11-21T01:41:49;9.03;;;2.10;;
10717;SDS011;13513;42.700;23.124;2023-11-21T01:44:17;8.97;;;2.80;;
10717;SDS011;13513;42.700;23.124;2023-11-21T01:46:45;5.93;;;1.90;;
10717;SDS011;13513;42.700;23.124;2023-11-21T01:49:14;6.10;;;1.93;;
10717;SDS011;13513;42.700;23.124;2023-11-21T01:51:43;6.43;;;2.57;;
10717;SDS011;13513;42.700;23.124;2023-11-21T01:54:15;7.80;;;2.60;;
10717;SDS011;13513;42.700;23.124;2023-11-21T01:56:45;4.60;;;2.30;;
10717;SDS011;13513;42.700;23.124;2023-11-21T01:59:18;9.53;;;2.27;;
10717;SDS011;13513;42.700;23.124;2023-11-21T02:01:49;5.90;;;2.13;;
10717;SDS011;13513;42.700;23.124;2023-11-21T02:04:17;3.97;;;2.30;;
10717;SDS011;13513;42.700;23.124;2023-11-21T02:06:46;3.70;;;1.93;;
10717;SDS011;13513;42.700;23.124;2023-11-21T02:09:16;4.83;;;2.70;;
10717;SDS011;13513;42.700;23.124;2023-11-21T02:11:43;4.13;;;2.77;;
10717;SDS011;13513;42.700;23.124;2023-11-21T02:14:11;5.53;;;3.33;;
10717;SDS011;13513;42.700;23.124;2023-11-21T02:16:39;6.80;;;4.70;;
10717;SDS011;13513;42.700;23.124;2023-11-21T02:19:07;5.30;;;3.03;;
10717;SDS011;13513;42.700;23.124;2023-11-21T02:21:36;5.27;;;3.30;;
10717;SDS011;13513;42.700;23.124;2023-11-21T02:24:06;23.43;;;15.33;;
10717;SDS011;13513;42.700;23.124;2023-11-21T02:26:34;18.50;;;8.97;;
10717;SDS011;13513;42.700;23.124;2023-11-21T02:29:01;9.40;;;5.60;;
10717;SDS011;13513;42.700;23.124;2023-11-21T02:31:30;6.10;;;3.80;;
10717;SDS011;13513;42.700;23.124;2023-11-21T02:33:58;6.53;;;3.33;;
10717;SDS011;13513;42.700;23.124;2023-11-21T02:36:26;5.97;;;3.30;;
10717;SDS011;13513;42.700;23.124;2023-11-21T02:38:53;5.90;;;3.30;;
10717;SDS011;13513;42.700;23.124;2023-11-21T02:41:20;8.50;;;3.43;;
10717;SDS011;13513;42.700;23.124;2023-11-21T02:43:48;10.43;;;3.73;;
10717;SDS011;13513;42.700;23.124;2023-11-21T02:46:15;8.53;;;3.90;;
10717;SDS011;13513;42.700;23.124;2023-11-21T02:48:43;9.73;;;3.43;;
10717;SDS011;13513;42.700;23.124;2023-11-21T02:51:10;15.80;;;4.83;;
10717;SDS011;13513;42.700;23.124;2023-11-21T02:53:38;7.90;;;4.27;;
10717;SDS011;13513;42.700;23.124;2023-11-21T02:56:05;7.63;;;3.70;;
10717;SDS011;13513;42.700;23.124;2023-11-21T02:58:33;11.80;;;4.13;;
10717;SDS011;13513;42.700;23.124;2023-11-21T03:01:00;6.03;;;3.43;;
10717;SDS011;13513;42.700;23.124;2023-11-21T03:03:28;8.23;;;3.00;;
10717;SDS011;13513;42.700;23.124;2023-11-21T03:05:55;5.80;;;2.70;;
10717;SDS011;13513;42.700;23.124;2023-11-21T03:08:23;13.43;;;4.47;;
10717;SDS011;13513;42.700;23.124;2023-11-21T03:10:50;12.43;;;4.43;;
10717;SDS011;13513;42.700;23.124;2023-11-21T03:13:18;8.57;;;4.00;;
10717;SDS011;13513;42.700;23.124;2023-11-21T03:15:45;8.30;;;3.57;;
10717;SDS011;13513;42.700;23.124;2023-11-21T03:18:13;6.37;;;3.67;;
10717;SDS011;13513;42.700;23.124;2023-11-21T03:20:40;10.20;;;3.77;;
10717;SDS011;13513;42.700;23.124;2023-11-21T03:23:11;8.97;;;4.87;;
10717;SDS011;13513;42.700;23.124;2023-11-21T03:25:38;15.70;;;5.47;;
10717;SDS011;13513;42.700;23.124;2023-11-21T03:28:06;16.23;;;5.90;;
10717;SDS011;13513;42.700;23.124;2023-11-21T03:30:34;12.07;;;4.20;;
10717;SDS011;13513;42.700;23.124;2023-11-21T03:33:01;10.13;;;4.50;;
10717;SDS011;13513;42.700;23.124;2023-11-21T03:35:29;9.13;;;3.63;;
10717;SDS011;13513;42.700;23.124;2023-11-21T03:37:57;10.53;;;3.43;;
10717;SDS011;13513;42.700;23.124;2023-11-21T03:40:24;8.47;;;3.07;;
10717;SDS011;13513;42.700;23.124;2023-11-21T03:42:51;5.60;;;3.20;;
10717;SDS011;13513;42.700;23.124;2023-11-21T03:45:19;9.40;;;3.80;;
10717;SDS011;13513;42.700;23.124;2023-11-21T03:47:46;10.03;;;3.53;;
10717;SDS011;13513;42.700;23.124;2023-11-21T03:50:14;7.33;;;3.50;;
10717;SDS011;13513;42.700;23.124;2023-11-21T03:52:42;7.23;;;3.43;;
10717;SDS011;13513;42.700;23.124;2023-11-21T03:55:10;10.33;;;4.80;;
10717;SDS011;13513;42.700;23.124;2023-11-21T03:57:37;16.63;;;6.67;;
10717;SDS011;13513;42.700;23.124;2023-11-21T04:00:05;10.17;;;4.83;;
10717;SDS011;13513;42.700;23.124;2023-11-21T04:02:35;14.27;;;4.60;;
10717;SDS011;13513;42.700;23.124;2023-11-21T04:05:02;9.27;;;4.80;;
10717;SDS011;13513;42.700;23.124;2023-11-21T04:07:30;7.87;;;3.43;;
10717;SDS011;13513;42.700;23.124;2023-11-21T04:09:58;7.50;;;3.50;;
10717;SDS011;13513;42.700;23.124;2023-11-21T04:12:26;5.03;;;2.90;;
10717;SDS011;13513;42.700;23.124;2023-11-21T04:14:53;10.23;;;3.70;;
10717;SDS011;13513;42.700;23.124;2023-11-21T04:17:21;7.90;;;3.50;;
10717;SDS011;13513;42.700;23.124;2023-11-21T04:19:48;9.93;;;3.97;;
10717;SDS011;13513;42.700;23.124;2023-11-21T04:22:16;9.30;;;3.27;;
10717;SDS011;13513;42.700;23.124;2023-11-21T04:24:43;7.60;;;3.03;;
10717;SDS011;13513;42.700;23.124;2023-11-21T04:27:11;5.47;;;2.57;;
10717;SDS011;13513;42.700;23.124;2023-11-21T04:29:39;6.70;;;2.70;;
10717;SDS011;13513;42.700;23.124;2023-11-21T04:32:07;5.87;;;3.10;;
10717;SDS011;13513;42.700;23.124;2023-11-21T04:34:34;5.23;;;2.80;;
10717;SDS011;13513;42.700;23.124;2023-11-21T04:37:03;5.93;;;3.13;;
10717;SDS011;13513;42.700;23.124;2023-11-21T04:39:32;6.23;;;3.60;;
10717;SDS011;13513;42.700;23.124;2023-11-21T04:41:59;6.63;;;3.93;;
10717;SDS011;13513;42.700;23.124;2023-11-21T04:44:26;8.23;;;3.03;;
10717;SDS011;13513;42.700;23.124;2023-11-21T04:46:54;8.70;;;4.60;;
10717;SDS011;13513;42.700;23.124;2023-11-21T04:49:21;23.07;;;10.33;;
10717;SDS011;13513;42.700;23.124;2023-11-21T04:51:49;19.30;;;9.80;;
10717;SDS011;13513;42.700;23.124;2023-11-21T04:54:17;13.10;;;6.87;;
10717;SDS011;13513;42.700;23.124;2023-11-21T04:56:44;11.00;;;5.50;;
10717;SDS011;13513;42.700;23.124;2023-11-21T04:59:12;9.60;;;4.20;;
10717;SDS011;13513;42.700;23.124;2023-11-21T05:01:39;10.37;;;5.03;;
10717;SDS011;13513;42.700;23.124;2023-11-21T05:04:07;10.70;;;5.40;;
10717;SDS011;13513;42.700;23.124;2023-11-21T05:06:34;12.80;;;8.10;;
10717;SDS011;13513;42.700;23.124;2023-11-21T05:09:02;9.63;;;6.90;;
10717;SDS011;13513;42.700;23.124;2023-11-21T05:11:29;12.17;;;6.83;;
10717;SDS011;13513;42.700;23.124;2023-11-21T05:13:57;14.63;;;5.73;;
10717;SDS011;13513;42.700;23.124;2023-11-21T05:16:27;9.23;;;5.47;;
10717;SDS011;13513;42.700;23.124;2023-11-21T05:18:54;12.90;;;5.00;;
10717;SDS011;13513;42.700;23.124;2023-11-21T05:21:26;10.03;;;4.73;;
10717;SDS011;13513;42.700;23.124;2023-11-21T05:23:56;6.40;;;4.00;;
10717;SDS011;13513;42.700;23.124;2023-11-21T05:26:23;8.63;;;4.03;;
10717;SDS011;13513;42.700;23.124;2023-11-21T05:28:51;12.13;;;4.50;;
10717;SDS011;13513;42.700;23.124;2023-11-21T05:31:18;6.40;;;3.43;;
10717;SDS011;13513;42.700;23.124;2023-11-21T05:33:46;8.33;;;3.60;;
10717;SDS011;13513;42.700;23.124;2023-11-21T05:36:14;7.37;;;3.50;;
10717;SDS011;13513;42.700;23.124;2023-11-21T05:38:41;8.30;;;3.30;;
10717;SDS011;13513;42.700;23.124;2023-11-21T05:41:09;6.87;;;3.37;;
10717;SDS011;13513;42.700;23.124;2023-11-21T05:43:39;6.23;;;3.00;;
10717;SDS011;13513;42.700;23.124;2023-11-21T05:46:06;6.80;;;2.83;;
10717;SDS011;13513;42.700;23.124;2023-11-21T05:48:34;3.23;;;2.27;;
10717;SDS011;13513;42.700;23.124;2023-11-21T05:51:04;4.23;;;2.50;;
10717;SDS011;13513;42.700;23.124;2023-11-21T05:53:33;5.33;;;2.43;;
10717;SDS011;13513;42.700;23.124;2023-11-21T05:56:01;7.83;;;2.60;;
10717;SDS011;13513;42.700;23.124;2023-11-21T05:58:29;5.97;;;3.50;;
10717;SDS011;13513;42.700;23.124;2023-11-21T06:00:57;5.40;;;3.13;;
10717;SDS011;13513;42.700;23.124;2023-11-21T06:03:24;7.93;;;3.37;;
10717;SDS011;13513;42.700;23.124;2023-11-21T06:05:52;5.33;;;3.03;;
10717;SDS011;13513;42.700;23.124;2023-11-21T06:08:19;7.57;;;3.13;;
10717;SDS011;13513;42.700;23.124;2023-11-21T06:10:47;8.83;;;3.13;;
10717;SDS011;13513;42.700;23.124;2023-11-21T06:13:15;5.87;;;2.90;;
10717;SDS011;13513;42.700;23.124;2023-11-21T06:15:44;6.27;;;3.20;;
10717;SDS011;13513;42.700;23.124;2023-11-21T06:18:11;5.90;;;3.27;;
10717;SDS011;13513;42.700;23.124;2023-11-21T06:20:39;5.87;;;3.50;;
10717;SDS011;13513;42.700;23.124;2023-11-21T06:23:06;7.33;;;4.20;;
10717;SDS011;13513;42.700;23.124;2023-11-21T06:25:35;11.17;;;5.13;;
10717;SDS011;13513;42.700;23.124;2023-11-21T06:28:02;9.93;;;5.17;;
10717;SDS011;13513;42.700;23.124;2023-11-21T06:30:30;7.60;;;4.47;;
10717;SDS011;13513;42.700;23.124;2023-11-21T06:32:58;9.27;;;5.17;;
10717;SDS011;13513;42.700;23.124;2023-11-21T06:35:26;8.33;;;5.17;;
10717;SDS011;13513;42.700;23.124;2023-11-21T06:37:55;7.60;;;4.87;;
10717;SDS011;13513;42.700;23.124;2023-11-21T06:40:23;8.03;;;4.03;;
10717;SDS011;13513;42.700;23.124;2023-11-21T06:42:50;8.97;;;4.70;;
10717;SDS011;13513;42.700;23.124;2023-11-21T06:45:18;9.27;;;5.77;;
10717;SDS011;13513;42.700;23.124;2023-11-21T06:47:47;6.10;;;4.53;;
10717;SDS011;13513;42.700;23.124;2023-11-21T06:50:14;8.77;;;4.40;;
10717;SDS011;13513;42.700;23.124;2023-11-21T06:52:42;9.77;;;5.00;;
10717;SDS011;13513;42.700;23.124;2023-11-21T06:55:09;8.70;;;4.70;;
10717;SDS011;13513;42.700;23.124;2023-11-21T06:57:37;9.97;;;5.00;;
10717;SDS011;13513;42.700;23.124;2023-11-21T07:00:04;9.60;;;4.50;;
10717;SDS011;13513;42.700;23.124;2023-11-21T07:02:34;8.10;;;4.53;;
10717;SDS011;13513;42.700;23.124;2023-11-21T07:05:02;7.50;;;4.17;;
10717;SDS011;13513;42.700;23.124;2023-11-21T07:07:29;7.60;;;3.93;;
10717;SDS011;13513;42.700;23.124;2023-11-21T07:09:57;13.57;;;4.40;;
10717;SDS011;13513;42.700;23.124;2023-11-21T07:12:26;13.33;;;4.93;;
10717;SDS011;13513;42.700;23.124;2023-11-21T07:14:54;9.23;;;4.20;;
10717;SDS011;13513;42.700;23.124;2023-11-21T07:17:22;17.27;;;10.70;;
10717;SDS011;13513;42.700;23.124;2023-11-21T07:19:49;19.07;;;11.03;;
10717;SDS011;13513;42.700;23.124;2023-11-21T07:22:17;7.03;;;4.47;;
10717;SDS011;13513;42.700;23.124;2023-11-21T07:24:47;9.33;;;4.90;;
10717;SDS011;13513;42.700;23.124;2023-11-21T07:27:17;6.23;;;3.30;;
10717;SDS011;13513;42.700;23.124;2023-11-21T07:29:45;7.73;;;3.97;;
10717;SDS011;13513;42.700;23.124;2023-11-21T07:32:14;12.93;;;7.10;;
10717;SDS011;13513;42.700;23.124;2023-11-21T07:34:41;19.70;;;10.70;;
10717;SDS011;13513;42.700;23.124;2023-11-21T07:37:09;10.13;;;5.97;;
10717;SDS011;13513;42.700;23.124;2023-11-21T07:39:36;10.47;;;5.47;;
10717;SDS011;13513;42.700;23.124;2023-11-21T07:42:05;7.85;;;5.35;;
10717;SDS011;13513;42.700;23.124;2023-11-21T07:44:33;7.72;;;5.12;;
10717;SDS011;13513;42.700;23.124;2023-11-21T07:47:00;7.65;;;5.42;;
10717;SDS011;13513;42.700;23.124;2023-11-21T07:49:28;8.78;;;4.00;;
10717;SDS011;13513;42.700;23.124;2023-11-21T07:51:56;6.83;;;3.90;;
10717;SDS011;13513;42.700;23.124;2023-11-21T07:54:23;6.47;;;4.28;;
10717;SDS011;13513;42.700;23.124;2023-11-21T07:56:51;7.85;;;4.80;;
10717;SDS011;13513;42.700;23.124;2023-11-21T07:59:18;7.33;;;5.10;;
10717;SDS011;13513;42.700;23.124;2023-11-21T08:01:46;13.98;;;8.80;;
10717;SDS011;13513;42.700;23.124;2023-11-21T08:04:14;13.43;;;8.53;;
10717;SDS011;13513;42.700;23.124;2023-11-21T08:06:41;16.93;;;9.40;;
10717;SDS011;13513;42.700;23.124;2023-11-21T08:09:09;21.47;;;9.20;;
10717;SDS011;13513;42.700;23.124;2023-11-21T08:11:38;14.03;;;8.43;;
10717;SDS011;13513;42.700;23.124;2023-11-21T08:14:06;12.77;;;8.00;;
10717;SDS011;13513;42.700;23.124;2023-11-21T08:16:33;18.83;;;7.20;;
10717;SDS011;13513;42.700;23.124;2023-11-21T08:19:01;14.53;;;8.30;;
10717;SDS011;13513;42.700;23.124;2023-11-21T08:21:28;12.70;;;7.10;;
10717;SDS011;13513;42.700;23.124;2023-11-21T08:23:56;14.87;;;7.67;;
10717;SDS011;13513;42.700;23.124;2023-11-21T08:26:25;17.53;;;7.43;;
10717;SDS011;13513;42.700;23.124;2023-11-21T08:28:53;14.63;;;7.07;;
10717;SDS011;13513;42.700;23.124;2023-11-21T08:31:25;8.27;;;5.70;;
10717;SDS011;13513;42.700;23.124;2023-11-21T08:33:53;11.13;;;6.90;;
10717;SDS011;13513;42.700;23.124;2023-11-21T08:36:21;12.00;;;7.30;;
10717;SDS011;13513;42.700;23.124;2023-11-21T08:38:50;16.20;;;10.07;;
10717;SDS011;13513;42.700;23.124;2023-11-21T08:41:20;14.10;;;8.37;;
10717;SDS011;13513;42.700;23.124;2023-11-21T08:43:49;15.67;;;9.77;;
10717;SDS011;13513;42.700;23.124;2023-11-21T08:46:17;19.70;;;9.75;;
10717;SDS011;13513;42.700;23.124;2023-11-21T08:48:45;16.70;;;9.37;;
10717;SDS011;13513;42.700;23.124;2023-11-21T08:51:12;12.93;;;8.80;;
10717;SDS011;13513;42.700;23.124;2023-11-21T08:53:40;14.13;;;9.03;;
10717;SDS011;13513;42.700;23.124;2023-11-21T08:56:12;13.32;;;8.03;;
10717;SDS011;13513;42.700;23.124;2023-11-21T08:58:40;12.43;;;8.23;;
10717;SDS011;13513;42.700;23.124;2023-11-21T09:01:08;19.77;;;7.85;;
10717;SDS011;13513;42.700;23.124;2023-11-21T09:03:35;11.80;;;7.37;;
10717;SDS011;13513;42.700;23.124;2023-11-21T09:06:03;12.57;;;8.20;;
10717;SDS011;13513;42.700;23.124;2023-11-21T09:08:32;16.03;;;9.27;;
10717;SDS011;13513;42.700;23.124;2023-11-21T09:10:59;14.87;;;9.30;;
10717;SDS011;13513;42.700;23.124;2023-11-21T09:13:28;16.97;;;9.87;;
10717;SDS011;13513;42.700;23.124;2023-11-21T09:15:56;22.00;;;10.53;;
10717;SDS011;13513;42.700;23.124;2023-11-21T09:18:23;14.50;;;9.97;;
10717;SDS011;13513;42.700;23.124;2023-11-21T09:20:50;35.37;;;18.27;;
10717;SDS011;13513;42.700;23.124;2023-11-21T09:23:18;15.17;;;8.53;;
10717;SDS011;13513;42.700;23.124;2023-11-21T09:25:46;11.20;;;7.50;;
10717;SDS011;13513;42.700;23.124;2023-11-21T09:28:15;12.03;;;7.43;;
10717;SDS011;13513;42.700;23.124;2023-11-21T09:30:43;9.97;;;6.40;;
10717;SDS011;13513;42.700;23.124;2023-11-21T09:33:10;12.67;;;6.97;;
10717;SDS011;13513;42.700;23.124;2023-11-21T09:35:38;16.73;;;8.10;;
10717;SDS011;13513;42.700;23.124;2023-11-21T09:38:05;11.93;;;7.97;;
10717;SDS011;13513;42.700;23.124;2023-11-21T09:40:34;11.97;;;7.80;;
10717;SDS011;13513;42.700;23.124;2023-11-21T09:43:08;10.83;;;7.40;;
10717;SDS011;13513;42.700;23.124;2023-11-21T09:45:38;14.50;;;8.00;;
10717;SDS011;13513;42.700;23.124;2023-11-21T09:48:06;17.53;;;8.80;;
10717;SDS011;13513;42.700;23.124;2023-11-21T09:50:37;12.83;;;8.20;;
10717;SDS011;13513;42.700;23.124;2023-11-21T09:53:18;11.37;;;8.10;;
10717;SDS011;13513;42.700;23.124;2023-11-21T09:55:49;13.57;;;6.93;;
10717;SDS011;13513;42.700;23.124;2023-11-21T09:58:19;10.60;;;6.27;;
10717;SDS011;13513;42.700;23.124;2023-11-21T10:00:53;10.00;;;6.20;;
10717;SDS011;13513;42.700;23.124;2023-11-21T10:03:23;10.03;;;5.55;;
10717;SDS011;13513;42.700;23.124;2023-11-21T10:05:51;10.53;;;6.50;;
10717;SDS011;13513;42.700;23.124;2023-11-21T10:08:21;10.07;;;6.00;;
10717;SDS011;13513;42.700;23.124;2023-11-21T10:10:53;13.10;;;6.50;;
10717;SDS011;13513;42.700;23.124;2023-11-21T10:13:20;10.63;;;6.03;;
10717;SDS011;13513;42.700;23.124;2023-11-21T10:15:49;14.73;;;7.70;;
10717;SDS011;13513;42.700;23.124;2023-11-21T10:18:18;13.10;;;7.27;;
10717;SDS011;13513;42.700;23.124;2023-11-21T10:20:47;11.53;;;7.53;;
10717;SDS011;13513;42.700;23.124;2023-11-21T10:23:18;13.48;;;7.90;;
10717;SDS011;13513;42.700;23.124;2023-11-21T10:25:47;11.55;;;7.92;;
10717;SDS011;13513;42.700;23.124;2023-11-21T10:28:17;9.33;;;7.50;;
10717;SDS011;13513;42.700;23.124;2023-11-21T10:30:46;13.10;;;7.80;;
10717;SDS011;13513;42.700;23.124;2023-11-21T10:33:13;13.17;;;7.77;;
10717;SDS011;13513;42.700;23.124;2023-11-21T10:38:15;14.70;;;9.17;;
10717;SDS011;13513;42.700;23.124;2023-11-21T10:40:44;12.70;;;8.37;;
10717;SDS011;13513;42.700;23.124;2023-11-21T10:43:12;15.63;;;8.60;;
10717;SDS011;13513;42.700;23.124;2023-11-21T10:45:42;15.83;;;8.90;;
10717;SDS011;13513;42.700;23.124;2023-11-21T10:48:13;12.97;;;8.43;;
10717;SDS011;13513;42.700;23.124;2023-11-21T10:50:43;14.70;;;9.60;;
10717;SDS011;13513;42.700;23.124;2023-11-21T10:53:12;14.70;;;9.00;;
10717;SDS011;13513;42.700;23.124;2023-11-21T10:55:40;13.00;;;8.87;;
10717;SDS011;13513;42.700;23.124;2023-11-21T10:58:09;11.37;;;8.17;;
10717;SDS011;13513;42.700;23.124;2023-11-21T11:00:39;11.88;;;8.10;;
10717;SDS011;13513;42.700;23.124;2023-11-21T11:03:09;12.45;;;8.78;;
10717;SDS011;13513;42.700;23.124;2023-11-21T11:05:39;12.83;;;8.97;;
10717;SDS011;13513;42.700;23.124;2023-11-21T11:08:11;12.78;;;8.38;;
10717;SDS011;13513;42.700;23.124;2023-11-21T11:10:43;15.10;;;7.87;;
10717;SDS011;13513;42.700;23.124;2023-11-21T11:13:13;10.30;;;7.10;;
10717;SDS011;13513;42.700;23.124;2023-11-21T11:15:41;14.00;;;7.77;;
10717;SDS011;13513;42.700;23.124;2023-11-21T11:18:11;8.60;;;7.20;;
10717;SDS011;13513;42.700;23.124;2023-11-21T11:20:39;12.03;;;8.20;;
10717;SDS011;13513;42.700;23.124;2023-11-21T11:34:23;12.93;;;8.03;;
10717;SDS011;13513;42.700;23.124;2023-11-21T11:37:12;12.53;;;9.03;;
10717;SDS011;13513;42.700;23.124;2023-11-21T11:39:26;14.07;;;9.47;;
10717;SDS011;13513;42.700;23.124;2023-11-21T11:41:59;13.53;;;9.63;;
10717;SDS011;13513;42.700;23.124;2023-11-21T11:47:22;24.93;;;14.50;;
10717;SDS011;13513;42.700;23.124;2023-11-21T11:50:08;17.67;;;13.77;;
10717;SDS011;13513;42.700;23.124;2023-11-21T11:52:44;16.33;;;11.37;;
10717;SDS011;13513;42.700;23.124;2023-11-21T11:55:20;17.97;;;12.37;;
10717;SDS011;13513;42.700;23.124;2023-11-21T11:57:50;18.47;;;11.50;;
10717;SDS011;13513;42.700;23.124;2023-11-21T12:02:59;17.30;;;11.93;;
10717;SDS011;13513;42.700;23.124;2023-11-21T12:05:30;23.43;;;13.33;;
10717;SDS011;13513;42.700;23.124;2023-11-21T12:08:06;17.17;;;9.33;;
10717;SDS011;13513;42.700;23.124;2023-11-21T12:10:31;14.47;;;7.60;;
10717;SDS011;13513;42.700;23.124;2023-11-21T12:13:06;12.67;;;8.80;;
10717;SDS011;13513;42.700;23.124;2023-11-21T12:15:36;9.07;;;6.37;;
10717;SDS011;13513;42.700;23.124;2023-11-21T12:18:04;24.33;;;14.43;;
10717;SDS011;13513;42.700;23.124;2023-11-21T12:20:31;52.53;;;29.00;;
10717;SDS011;13513;42.700;23.124;2023-11-21T12:23:01;27.83;;;15.77;;
10717;SDS011;13513;42.700;23.124;2023-11-21T12:25:29;15.63;;;9.07;;
10717;SDS011;13513;42.700;23.124;2023-11-21T12:28:02;13.30;;;6.00;;
10717;SDS011;13513;42.700;23.124;2023-11-21T12:30:33;10.55;;;5.30;;
10717;SDS011;13513;42.700;23.124;2023-11-21T12:33:01;7.72;;;4.95;;
10717;SDS011;13513;42.700;23.124;2023-11-21T12:35:30;10.57;;;4.67;;
10717;SDS011;13513;42.700;23.124;2023-11-21T12:38:05;10.67;;;4.77;;
10717;SDS011;13513;42.700;23.124;2023-11-21T12:40:34;8.73;;;5.10;;
10717;SDS011;13513;42.700;23.124;2023-11-21T12:43:01;13.22;;;9.30;;
10717;SDS011;13513;42.700;23.124;2023-11-21T12:45:31;22.33;;;15.27;;
10717;SDS011;13513;42.700;23.124;2023-11-21T12:48:03;18.93;;;12.13;;
10717;SDS011;13513;42.700;23.124;2023-11-21T12:50:36;17.87;;;13.10;;
10717;SDS011;13513;42.700;23.124;2023-11-21T12:53:05;11.57;;;6.80;;
10717;SDS011;13513;42.700;23.124;2023-11-21T12:55:35;10.83;;;7.73;;
10717;SDS011;13513;42.700;23.124;2023-11-21T12:58:07;14.07;;;8.23;;
10717;SDS011;13513;42.700;23.124;2023-11-21T13:00:37;15.37;;;8.87;;
10717;SDS011;13513;42.700;23.124;2023-11-21T13:03:09;15.50;;;9.30;;
10717;SDS011;13513;42.700;23.124;2023-11-21T13:05:40;15.40;;;9.60;;
10717;SDS011;13513;42.700;23.124;2023-11-21T13:08:10;21.03;;;14.97;;
10717;SDS011;13513;42.700;23.124;2023-11-21T13:10:44;18.50;;;11.47;;
10717;SDS011;13513;42.700;23.124;2023-11-21T13:13:12;24.13;;;13.83;;
10717;SDS011;13513;42.700;23.124;2023-11-21T13:15:50;31.40;;;17.70;;
10717;SDS011;13513;42.700;23.124;2023-11-21T13:18:20;24.70;;;16.60;;
10717;SDS011;13513;42.700;23.124;2023-11-21T13:20:49;52.97;;;30.67;;
10717;SDS011;13513;42.700;23.124;2023-11-21T13:23:17;51.17;;;30.07;;
10717;SDS011;13513;42.700;23.124;2023-11-21T13:25:44;43.37;;;26.03;;
10717;SDS011;13513;42.700;23.124;2023-11-21T13:28:13;29.87;;;19.07;;
10717;SDS011;13513;42.700;23.124;2023-11-21T13:30:47;29.30;;;19.30;;
10717;SDS011;13513;42.700;23.124;2023-11-21T13:33:17;30.10;;;17.57;;
10717;SDS011;13513;42.700;23.124;2023-11-21T13:35:46;24.53;;;16.07;;
10717;SDS011;13513;42.700;23.124;2023-11-21T13:38:16;24.83;;;14.03;;
10717;SDS011;13513;42.700;23.124;2023-11-21T13:40:47;24.80;;;17.17;;
10717;SDS011;13513;42.700;23.124;2023-11-21T13:43:19;27.47;;;19.03;;
10717;SDS011;13513;42.700;23.124;2023-11-21T13:45:50;18.40;;;13.40;;
10717;SDS011;13513;42.700;23.124;2023-11-21T13:48:26;20.53;;;13.13;;
10717;SDS011;13513;42.700;23.124;2023-11-21T13:51:10;34.10;;;19.83;;
10717;SDS011;13513;42.700;23.124;2023-11-21T13:53:44;18.17;;;12.50;;
10717;SDS011;13513;42.700;23.124;2023-11-21T13:56:18;32.63;;;22.17;;
10717;SDS011;13513;42.700;23.124;2023-11-21T13:58:47;22.23;;;15.20;;
10717;SDS011;13513;42.700;23.124;2023-11-21T14:01:20;42.67;;;24.23;;
10717;SDS011;13513;42.700;23.124;2023-11-21T14:03:51;26.87;;;18.00;;
10717;SDS011;13513;42.700;23.124;2023-11-21T14:06:20;29.40;;;19.17;;
10717;SDS011;13513;42.700;23.124;2023-11-21T14:08:50;23.43;;;14.13;;
10717;SDS011;13513;42.700;23.124;2023-11-21T14:11:18;24.33;;;16.00;;
10717;SDS011;13513;42.700;23.124;2023-11-21T14:13:47;24.13;;;15.10;;
10717;SDS011;13513;42.700;23.124;2023-11-21T14:16:15;21.83;;;13.87;;
10717;SDS011;13513;42.700;23.124;2023-11-21T14:18:43;22.83;;;13.03;;
10717;SDS011;13513;42.700;23.124;2023-11-21T14:21:21;18.87;;;12.00;;
10717;SDS011;13513;42.700;23.124;2023-11-21T14:23:49;16.23;;;11.30;;
10717;SDS011;13513;42.700;23.124;2023-11-21T14:26:17;16.77;;;11.67;;
10717;SDS011;13513;42.700;23.124;2023-11-21T14:28:44;18.27;;;11.37;;
10717;SDS011;13513;42.700;23.124;2023-11-21T14:31:14;18.23;;;11.20;;
10717;SDS011;13513;42.700;23.124;2023-11-21T14:33:48;14.87;;;9.93;;
10717;SDS011;13513;42.700;23.124;2023-11-21T14:36:11;14.37;;;9.77;;
10717;SDS011;13513;42.700;23.124;2023-11-21T14:38:40;15.10;;;10.43;;
10717;SDS011;13513;42.700;23.124;2023-11-21T14:41:08;16.20;;;10.80;;
10717;SDS011;13513;42.700;23.124;2023-11-21T14:43:36;15.13;;;9.60;;
10717;SDS011;13513;42.700;23.124;2023-11-21T14:46:04;14.57;;;9.27;;
10717;SDS011;13513;42.700;23.124;2023-11-21T14:48:34;10.30;;;7.30;;
10717;SDS011;13513;42.700;23.124;2023-11-21T14:51:12;10.03;;;6.43;;
10717;SDS011;13513;42.700;23.124;2023-11-21T14:53:54;9.10;;;7.00;;